createdAt,value
2019-03-11T00:00:01.982Z,38.78
2019-03-11T00:02:31.177Z,59.85
2019-03-11T00:05:00.401Z,7.10
2019-03-11T00:07:29.659Z,43.90
2019-03-11T00:09:58.874Z,26.55
2019-03-11T00:12:28.071Z,24.77
2019-03-11T00:14:57.287Z,9.28
2019-03-11T00:17:26.528Z,38.15
2019-03-11T00:19:55.740Z,14.93
2019-03-11T00:22:24.937Z,27.75
2019-03-11T00:24:54.153Z,17.12
2019-03-11T00:27:23.362Z,9.68
2019-03-11T00:29:52.670Z,8.78
2019-03-11T00:32:21.863Z,7.03
2019-03-11T00:34:51.063Z,9.25
2019-03-11T00:37:20.314Z,11.25
2019-03-11T00:39:49.492Z,11.53
2019-03-11T00:42:18.696Z,14.73
2019-03-11T00:44:47.907Z,11.12
2019-03-11T00:47:17.122Z,13.48
2019-03-11T00:49:46.328Z,13.68
2019-03-11T00:52:15.520Z,13.80
2019-03-11T00:54:44.708Z,11.10
2019-03-11T00:57:13.896Z,10.38
2019-03-11T00:59:43.062Z,12.05
2019-03-11T01:02:12.268Z,10.90
2019-03-11T01:04:41.444Z,9.83
2019-03-11T01:07:10.728Z,16.02
2019-03-11T01:09:39.918Z,11.57
2019-03-11T01:12:09.110Z,14.95
2019-03-11T01:14:38.339Z,10.30
2019-03-11T01:17:07.538Z,11.90
2019-03-11T01:19:36.741Z,14.95
2019-03-11T01:22:05.954Z,13.90
2019-03-11T01:24:35.138Z,10.32
2019-03-11T01:27:04.351Z,13.72
2019-03-11T01:29:33.651Z,10.13
2019-03-11T01:32:02.860Z,13.28
2019-03-11T01:34:32.044Z,13.62
2019-03-11T01:37:01.267Z,9.98
2019-03-11T01:39:30.451Z,12.00
2019-03-11T01:41:59.651Z,9.58
2019-03-11T01:44:28.828Z,12.30
2019-03-11T01:46:58.049Z,15.58
2019-03-11T01:49:27.227Z,13.25
2019-03-11T01:51:56.429Z,10.32
2019-03-11T01:54:25.635Z,12.47
2019-03-11T01:56:54.815Z,15.98
2019-03-11T01:59:24.019Z,12.50
2019-03-11T02:01:53.219Z,11.63
2019-03-11T02:04:22.432Z,14.60
2019-03-11T02:06:51.625Z,14.53
2019-03-11T02:09:20.815Z,13.22
2019-03-11T02:11:50.015Z,11.95
2019-03-11T02:14:19.211Z,13.10
2019-03-11T02:16:48.412Z,10.72
2019-03-11T02:19:17.610Z,14.83
2019-03-11T02:21:46.854Z,13.28
2019-03-11T02:24:16.068Z,11.95
2019-03-11T02:26:45.271Z,12.40
2019-03-11T02:29:14.495Z,12.23
2019-03-11T02:31:43.678Z,12.10
2019-03-11T02:34:12.882Z,10.75
2019-03-11T02:36:42.076Z,9.03
2019-03-11T02:39:12.590Z,9.23
2019-03-11T02:41:41.789Z,6.58
2019-03-11T02:44:10.963Z,7.03
2019-03-11T02:46:40.187Z,4.15
2019-03-11T02:49:09.370Z,3.40
2019-03-11T02:51:38.649Z,6.65
2019-03-11T02:54:07.832Z,3.17
2019-03-11T02:56:37.027Z,4.17
2019-03-11T02:59:06.247Z,3.17
2019-03-11T03:01:53.097Z,4.28
2019-03-11T03:04:29.407Z,4.60
2019-03-11T03:06:58.557Z,3.90
2019-03-11T03:09:27.800Z,5.58
2019-03-11T03:11:57.002Z,4.78
2019-03-11T03:14:26.264Z,5.00
2019-03-11T03:16:55.434Z,5.47
2019-03-11T03:19:24.629Z,5.53
2019-03-11T03:21:53.792Z,4.58
2019-03-11T03:24:22.996Z,6.72
2019-03-11T03:26:52.175Z,8.90
2019-03-11T03:29:21.373Z,6.58
2019-03-11T03:31:50.568Z,4.42
2019-03-11T03:34:19.795Z,5.62
2019-03-11T03:36:48.988Z,7.33
2019-03-11T03:39:18.191Z,7.15
2019-03-11T03:41:47.406Z,6.42
2019-03-11T03:44:16.592Z,9.38
2019-03-11T03:46:45.779Z,5.83
2019-03-11T03:49:15.013Z,7.83
2019-03-11T03:51:44.218Z,10.60
2019-03-11T03:54:13.404Z,6.55
2019-03-11T03:56:42.586Z,8.43
2019-03-11T03:59:11.811Z,7.17
2019-03-11T04:01:40.955Z,8.20
2019-03-11T04:04:10.301Z,7.95
2019-03-11T04:06:39.510Z,7.97
2019-03-11T04:09:08.782Z,7.15
2019-03-11T04:11:38.046Z,9.05
2019-03-11T04:14:07.197Z,6.22
2019-03-11T04:16:36.408Z,6.83
2019-03-11T04:19:05.612Z,10.65
2019-03-11T04:21:34.810Z,5.08
2019-03-11T04:24:04.308Z,5.00
2019-03-11T04:26:33.493Z,8.55
2019-03-11T04:29:02.678Z,6.60
2019-03-11T04:31:31.867Z,6.75
2019-03-11T04:34:01.083Z,8.78
2019-03-11T04:36:30.286Z,6.87
2019-03-11T04:38:59.484Z,6.40
2019-03-11T04:41:28.774Z,9.18
2019-03-11T04:43:57.970Z,6.62
2019-03-11T04:46:27.214Z,7.55
2019-03-11T04:48:56.396Z,8.63
2019-03-11T04:51:25.592Z,9.50
2019-03-11T04:53:54.786Z,9.15
2019-03-11T04:56:23.982Z,10.40
2019-03-11T04:58:53.222Z,10.53
2019-03-11T05:01:22.423Z,10.38
2019-03-11T05:03:51.621Z,10.55
2019-03-11T05:06:20.811Z,10.75
2019-03-11T05:08:50.000Z,14.63
2019-03-11T05:11:19.219Z,11.05
2019-03-11T05:13:48.543Z,9.63
2019-03-11T05:16:17.817Z,12.90
2019-03-11T05:18:47.037Z,12.35
2019-03-11T05:21:16.231Z,8.55
2019-03-11T05:23:45.431Z,14.18
2019-03-11T05:26:14.632Z,9.68
2019-03-11T05:28:43.840Z,10.93
2019-03-11T05:31:13.033Z,9.63
2019-03-11T05:33:42.279Z,11.08
2019-03-11T05:36:11.457Z,10.53
2019-03-11T05:38:40.658Z,13.03
2019-03-11T05:41:09.847Z,12.53
2019-03-11T05:43:39.056Z,11.43
2019-03-11T05:46:08.269Z,10.48
2019-03-11T05:48:37.604Z,9.15
2019-03-11T05:51:06.835Z,8.93
2019-03-11T05:53:36.018Z,14.50
2019-03-11T05:56:05.225Z,10.40
2019-03-11T05:58:34.548Z,12.03
2019-03-11T06:01:03.752Z,9.13
2019-03-11T06:03:32.959Z,12.95
2019-03-11T06:06:02.146Z,9.38
2019-03-11T06:08:31.388Z,9.15
2019-03-11T06:11:00.618Z,11.18
2019-03-11T06:13:35.842Z,10.00
2019-03-11T06:16:02.294Z,9.20
2019-03-11T06:18:40.936Z,10.00
2019-03-11T06:21:27.933Z,10.50
2019-03-11T06:23:57.130Z,11.45
2019-03-11T06:26:26.352Z,11.55
2019-03-11T06:28:55.627Z,8.65
2019-03-11T06:31:24.841Z,12.65
2019-03-11T06:33:54.053Z,10.13
2019-03-11T06:36:23.323Z,12.25
2019-03-11T06:38:52.535Z,10.95
2019-03-11T06:41:21.719Z,8.58
2019-03-11T06:43:50.991Z,7.70
2019-03-11T06:46:20.190Z,6.85
2019-03-11T06:48:49.419Z,8.65
2019-03-11T06:51:18.610Z,9.70
2019-03-11T06:53:47.793Z,11.57
2019-03-11T06:56:17.043Z,7.67
2019-03-11T06:58:46.255Z,8.58
2019-03-11T07:01:15.458Z,11.03
2019-03-11T07:03:44.703Z,7.55
2019-03-11T07:06:13.882Z,9.05
2019-03-11T07:08:43.076Z,8.80
2019-03-11T07:11:12.295Z,6.53
2019-03-11T07:13:41.642Z,8.60
2019-03-11T07:16:10.845Z,7.87
2019-03-11T07:18:40.132Z,7.03
2019-03-11T07:21:09.314Z,8.53
2019-03-11T07:23:38.526Z,8.00
2019-03-11T07:26:07.742Z,10.13
2019-03-11T07:28:36.908Z,8.40
2019-03-11T07:31:06.110Z,9.78
2019-03-11T07:33:35.305Z,8.93
2019-03-11T07:36:04.659Z,10.28
2019-03-11T07:38:33.882Z,10.38
2019-03-11T07:41:03.066Z,10.68
2019-03-11T07:43:32.354Z,8.63
2019-03-11T07:46:01.702Z,9.35
2019-03-11T07:48:30.889Z,7.75
2019-03-11T07:51:00.085Z,7.70
2019-03-11T07:53:29.287Z,8.53
2019-03-11T07:55:58.671Z,10.25
2019-03-11T07:58:27.875Z,11.28
2019-03-11T08:00:57.058Z,6.47
2019-03-11T08:03:26.273Z,10.25
2019-03-11T08:05:55.445Z,9.08
2019-03-11T08:08:24.715Z,11.18
2019-03-11T08:10:53.940Z,9.30
2019-03-11T08:13:23.154Z,8.70
2019-03-11T08:15:52.340Z,5.40
2019-03-11T08:18:21.537Z,9.13
2019-03-11T08:20:50.743Z,9.83
2019-03-11T08:23:19.984Z,8.65
2019-03-11T08:25:49.209Z,6.40
2019-03-11T08:28:18.395Z,8.03
2019-03-11T08:30:47.994Z,8.13
2019-03-11T08:33:17.186Z,8.23
2019-03-11T08:35:46.382Z,10.85
2019-03-11T08:38:15.600Z,7.75
2019-03-11T08:40:44.857Z,8.20
2019-03-11T08:43:14.106Z,9.60
2019-03-11T08:45:43.302Z,8.03
2019-03-11T08:48:12.510Z,9.10
2019-03-11T08:50:41.707Z,6.30
2019-03-11T08:53:10.932Z,4.72
2019-03-11T08:55:40.143Z,4.80
2019-03-11T08:58:09.335Z,3.90
2019-03-11T09:00:38.565Z,6.05
2019-03-11T09:03:07.751Z,3.42
2019-03-11T09:05:36.995Z,4.15
2019-03-11T09:08:06.233Z,3.35
2019-03-11T09:10:35.459Z,4.12
2019-03-11T09:13:04.665Z,3.40
2019-03-11T09:15:33.946Z,2.35
2019-03-11T09:18:03.129Z,3.52
2019-03-11T09:20:32.321Z,3.92
2019-03-11T09:23:01.513Z,2.90
2019-03-11T09:25:30.733Z,3.90
2019-03-11T09:27:59.951Z,2.42
2019-03-11T09:30:29.124Z,2.37
2019-03-11T09:32:58.293Z,2.30
2019-03-11T09:35:27.510Z,3.60
2019-03-11T09:37:56.709Z,3.08
2019-03-11T09:40:25.906Z,3.12
2019-03-11T09:42:55.114Z,3.02
2019-03-11T09:45:24.679Z,3.22
2019-03-11T09:47:54.741Z,5.00
2019-03-11T09:50:24.004Z,2.50
2019-03-11T09:52:56.219Z,3.00
2019-03-11T09:55:25.422Z,5.03
2019-03-11T09:57:54.636Z,5.12
2019-03-11T10:00:23.842Z,4.15
2019-03-11T10:02:53.728Z,3.92
2019-03-11T10:05:23.126Z,3.75
2019-03-11T10:07:52.381Z,3.75
2019-03-11T10:10:21.660Z,3.27
2019-03-11T10:12:50.857Z,3.02
2019-03-11T10:15:20.101Z,2.58
2019-03-11T10:17:49.276Z,2.70
2019-03-11T10:20:18.628Z,1.87
2019-03-11T10:22:48.232Z,2.15
2019-03-11T10:25:17.983Z,2.98
2019-03-11T10:27:47.457Z,2.65
2019-03-11T10:30:17.575Z,2.50
2019-03-11T10:32:47.386Z,2.83
2019-03-11T10:35:31.382Z,3.67
2019-03-11T10:37:47.653Z,2.20
2019-03-11T10:40:18.562Z,5.87
2019-03-11T10:42:47.741Z,3.05
2019-03-11T10:45:17.192Z,3.62
2019-03-11T10:47:46.577Z,4.75
2019-03-11T10:50:15.785Z,6.08
2019-03-11T10:52:45.230Z,5.90
2019-03-11T10:55:14.675Z,3.10
2019-03-11T10:57:43.905Z,2.10
2019-03-11T11:00:19.140Z,3.15
2019-03-11T11:02:48.344Z,2.08
2019-03-11T11:05:17.540Z,3.40
2019-03-11T11:07:46.788Z,2.83
2019-03-11T11:10:16.004Z,3.35
2019-03-11T11:12:45.265Z,2.75
2019-03-11T11:15:17.217Z,2.22
2019-03-11T11:18:06.784Z,2.35
2019-03-11T11:20:35.994Z,2.33
2019-03-11T11:23:05.352Z,3.37
2019-03-11T11:25:34.559Z,2.15
2019-03-11T11:28:03.836Z,2.05
2019-03-11T11:30:33.056Z,2.30
2019-03-11T11:33:02.266Z,1.72
2019-03-11T11:35:31.534Z,2.22
2019-03-11T11:38:00.725Z,1.90
2019-03-11T11:40:32.864Z,2.60
2019-03-11T11:43:02.136Z,2.72
2019-03-11T11:45:31.403Z,4.17
2019-03-11T11:48:00.884Z,2.90
2019-03-11T11:50:30.055Z,4.25
2019-03-11T11:52:59.253Z,4.22
2019-03-11T11:55:28.519Z,4.67
2019-03-11T11:57:57.798Z,7.78
2019-03-11T12:00:29.160Z,8.43
2019-03-11T12:02:58.477Z,6.37
2019-03-11T12:05:27.792Z,7.15
2019-03-11T12:07:57.033Z,6.10
2019-03-11T12:10:26.246Z,7.60
2019-03-11T12:12:55.750Z,7.87
2019-03-11T12:15:25.060Z,8.18
2019-03-11T12:17:54.371Z,9.20
2019-03-11T12:20:23.990Z,10.68
2019-03-11T12:22:53.176Z,7.08
2019-03-11T12:25:22.422Z,8.95
2019-03-11T12:27:54.128Z,11.35
2019-03-11T12:30:24.723Z,9.23
2019-03-11T12:32:53.933Z,8.90
2019-03-11T12:35:23.262Z,7.85
2019-03-11T12:37:52.720Z,8.93
2019-03-11T12:40:22.027Z,6.03
2019-03-11T12:42:51.636Z,6.05
2019-03-11T12:45:20.921Z,8.05
2019-03-11T12:47:50.331Z,6.53
2019-03-11T12:50:20.445Z,3.40
2019-03-11T12:52:50.146Z,5.72
2019-03-11T12:55:21.371Z,4.55
2019-03-11T12:57:50.391Z,5.42
2019-03-11T13:00:20.059Z,4.83
2019-03-11T13:02:49.495Z,8.50
2019-03-11T13:05:19.116Z,21.68
2019-03-11T13:07:48.347Z,5.37
2019-03-11T13:10:18.811Z,3.80
2019-03-11T13:12:48.127Z,2.67
2019-03-11T13:15:17.462Z,2.85
2019-03-11T13:17:46.834Z,5.47
2019-03-11T13:20:25.484Z,5.35
2019-03-11T13:22:54.744Z,6.80
2019-03-11T13:25:23.954Z,8.45
2019-03-11T13:27:53.171Z,9.73
2019-03-11T13:30:22.590Z,8.38
2019-03-11T13:32:51.771Z,8.90
2019-03-11T13:35:21.048Z,5.65
2019-03-11T13:37:50.332Z,8.18
2019-03-11T13:40:19.559Z,7.92
2019-03-11T13:42:48.776Z,10.53
2019-03-11T13:45:18.035Z,11.38
2019-03-11T13:47:47.254Z,5.95
2019-03-11T13:50:16.483Z,6.55
2019-03-11T13:52:45.727Z,7.20
2019-03-11T13:55:15.985Z,11.03
2019-03-11T13:57:45.211Z,5.92
2019-03-11T14:00:14.557Z,7.45
2019-03-11T14:02:43.771Z,11.15
2019-03-11T14:05:13.055Z,5.90
2019-03-11T14:07:42.293Z,6.47
2019-03-11T14:10:11.565Z,8.58
2019-03-11T14:12:40.782Z,6.22
2019-03-11T14:15:10.289Z,11.83
2019-03-11T14:17:39.522Z,6.62
2019-03-11T14:20:09.871Z,6.17
2019-03-11T14:22:39.119Z,7.78
2019-03-11T14:25:08.672Z,6.65
2019-03-11T14:27:38.155Z,6.10
2019-03-11T14:30:08.662Z,5.22
2019-03-11T14:32:38.032Z,5.65
2019-03-11T14:35:08.209Z,6.17
2019-03-11T14:37:37.446Z,5.03
2019-03-11T14:40:07.436Z,4.42
2019-03-11T14:42:36.672Z,3.47
2019-03-11T14:45:08.494Z,8.50
2019-03-11T14:47:37.422Z,4.58
2019-03-11T14:50:07.450Z,6.05
2019-03-11T14:52:36.692Z,5.58
2019-03-11T14:55:06.345Z,4.05
2019-03-11T14:57:35.675Z,4.97
2019-03-11T15:00:05.280Z,6.78
2019-03-11T15:02:34.640Z,6.20
2019-03-11T15:05:03.869Z,4.15
2019-03-11T15:07:33.065Z,4.70
2019-03-11T15:10:02.309Z,3.02
2019-03-11T15:12:31.601Z,5.58
2019-03-11T15:15:01.392Z,6.03
2019-03-11T15:17:30.647Z,6.47
2019-03-11T15:20:01.778Z,4.72
2019-03-11T15:22:31.001Z,4.28
2019-03-11T15:25:00.409Z,7.42
2019-03-11T15:27:29.639Z,2.72
2019-03-11T15:29:58.973Z,7.47
2019-03-11T15:32:28.413Z,3.47
2019-03-11T15:34:57.629Z,5.33
2019-03-11T15:37:26.841Z,3.58
2019-03-11T15:39:56.121Z,6.00
2019-03-11T15:42:25.407Z,5.67
2019-03-11T15:44:56.676Z,3.02
2019-03-11T15:47:25.976Z,4.05
2019-03-11T15:49:55.308Z,3.58
2019-03-11T15:52:24.846Z,2.00
2019-03-11T15:54:54.088Z,6.15
2019-03-11T15:57:23.374Z,3.58
2019-03-11T15:59:52.680Z,2.87
2019-03-11T16:02:22.086Z,5.50
2019-03-11T16:04:51.316Z,7.70
2019-03-11T16:07:20.527Z,3.92
2019-03-11T16:09:49.743Z,4.08
2019-03-11T16:12:19.046Z,5.55
2019-03-11T16:14:50.060Z,4.60
2019-03-11T16:17:19.314Z,6.47
2019-03-11T16:19:48.902Z,3.77
2019-03-11T16:22:24.098Z,5.97
2019-03-11T16:24:49.215Z,4.00
2019-03-11T16:27:18.439Z,4.25
2019-03-11T16:29:47.779Z,5.40
2019-03-11T16:32:17.061Z,8.30
2019-03-11T16:34:46.276Z,8.55
2019-03-11T16:37:15.461Z,7.15
2019-03-11T16:39:44.676Z,6.03
2019-03-11T16:42:14.107Z,6.10
2019-03-11T16:44:43.488Z,7.08
2019-03-11T16:47:13.007Z,4.50
2019-03-11T16:49:42.379Z,5.65
2019-03-11T16:52:11.677Z,4.62
2019-03-11T16:54:40.905Z,2.90
2019-03-11T16:57:10.118Z,3.50
2019-03-11T16:59:39.666Z,2.17
2019-03-11T17:02:09.006Z,2.25
2019-03-11T17:04:38.306Z,1.92
2019-03-11T17:07:07.531Z,2.40
2019-03-11T17:09:36.820Z,3.62
2019-03-11T17:12:06.255Z,2.75
2019-03-11T17:14:35.494Z,3.35
2019-03-11T17:17:04.840Z,2.17
2019-03-11T17:19:34.135Z,1.40
2019-03-11T17:22:03.550Z,1.87
2019-03-11T17:24:33.086Z,3.55
2019-03-11T17:27:02.381Z,4.15
2019-03-11T17:29:31.605Z,2.80
2019-03-11T17:32:00.979Z,2.60
2019-03-11T17:34:30.705Z,2.08
2019-03-11T17:37:00.283Z,1.62
2019-03-11T17:39:29.584Z,1.85
2019-03-11T17:41:58.829Z,1.60
2019-03-11T17:44:31.141Z,1.98
2019-03-11T17:47:00.660Z,1.82
2019-03-11T17:49:30.537Z,1.70
2019-03-11T17:51:59.789Z,1.80
2019-03-11T17:54:29.227Z,1.15
2019-03-11T17:56:58.451Z,2.35
2019-03-11T17:59:27.892Z,2.50
2019-03-11T18:01:57.269Z,2.90
2019-03-11T18:04:26.586Z,4.47
2019-03-11T18:06:55.816Z,2.45
2019-03-11T18:09:25.035Z,2.95
2019-03-11T18:11:54.407Z,3.40
2019-03-11T18:14:23.655Z,2.20
2019-03-11T18:16:52.866Z,2.90
2019-03-11T18:19:22.132Z,2.30
2019-03-11T18:21:51.352Z,2.37
2019-03-11T18:24:20.652Z,1.55
2019-03-11T18:26:50.424Z,1.87
2019-03-11T18:29:19.737Z,2.85
2019-03-11T18:31:48.964Z,2.65
2019-03-11T18:34:18.304Z,3.02
2019-03-11T18:36:47.533Z,3.02
2019-03-11T18:39:19.128Z,4.25
2019-03-11T18:41:47.726Z,3.92
2019-03-11T18:44:17.133Z,6.40
2019-03-11T18:46:46.344Z,4.05
2019-03-11T18:49:15.616Z,7.17
2019-03-11T18:51:44.878Z,2.90
2019-03-11T18:54:14.258Z,4.58
2019-03-11T18:56:43.515Z,2.42
2019-03-11T18:59:12.743Z,4.92
2019-03-11T19:01:42.323Z,4.17
2019-03-11T19:04:11.590Z,4.08
2019-03-11T19:06:40.894Z,4.95
2019-03-11T19:09:10.207Z,7.67
2019-03-11T19:11:39.492Z,17.75
2019-03-11T19:14:08.732Z,5.33
2019-03-11T19:16:37.995Z,5.03
2019-03-11T19:19:07.236Z,10.93
2019-03-11T19:21:36.481Z,13.53
2019-03-11T19:24:05.881Z,6.55
2019-03-11T19:26:35.189Z,4.62
2019-03-11T19:29:04.547Z,6.22
2019-03-11T19:31:33.966Z,5.65
2019-03-11T19:34:03.429Z,4.42
2019-03-11T19:36:33.638Z,5.78
2019-03-11T19:39:03.396Z,7.45
2019-03-11T19:41:32.707Z,4.15
2019-03-11T19:44:02.059Z,3.90
2019-03-11T19:46:31.474Z,6.97
2019-03-11T19:49:00.779Z,5.00
2019-03-11T19:51:30.390Z,7.80
2019-03-11T19:54:00.175Z,4.87
2019-03-11T19:56:29.869Z,8.03
2019-03-11T19:58:59.808Z,4.15
2019-03-11T20:01:29.558Z,5.90
2019-03-11T20:03:58.769Z,4.22
2019-03-11T20:06:28.091Z,7.12
2019-03-11T20:08:57.373Z,14.73
2019-03-11T20:11:26.780Z,5.28
2019-03-11T20:13:56.164Z,3.95
2019-03-11T20:16:25.620Z,5.35
2019-03-11T20:18:54.964Z,4.85
2019-03-11T20:21:24.421Z,5.05
2019-03-11T20:23:53.710Z,5.50
2019-03-11T20:26:23.148Z,7.03
2019-03-11T20:28:52.513Z,5.70
2019-03-11T20:31:21.886Z,5.30
2019-03-11T20:33:51.176Z,7.03
2019-03-11T20:36:21.488Z,8.00
2019-03-11T20:38:51.189Z,4.92
2019-03-11T20:41:20.909Z,7.53
2019-03-11T20:43:50.559Z,3.83
2019-03-11T20:46:19.983Z,5.55
2019-03-11T20:48:49.246Z,5.28
2019-03-11T20:51:18.691Z,5.42
2019-03-11T20:53:48.033Z,6.03
2019-03-11T20:56:17.306Z,6.17
2019-03-11T20:58:46.592Z,7.75
2019-03-11T21:01:16.001Z,8.75
2019-03-11T21:03:45.309Z,6.45
2019-03-11T21:06:14.658Z,5.72
2019-03-11T21:08:45.620Z,5.33
2019-03-11T21:11:15.134Z,6.62
2019-03-11T21:13:44.500Z,2.42
2019-03-11T21:16:14.177Z,5.05
2019-03-11T21:18:43.452Z,4.72
2019-03-11T21:21:12.973Z,7.40
2019-03-11T21:23:42.371Z,9.28
2019-03-11T21:26:11.786Z,7.60
2019-03-11T21:28:41.072Z,6.83
2019-03-11T21:31:10.393Z,5.08
2019-03-11T21:33:39.748Z,8.38
2019-03-11T21:36:09.113Z,6.60
2019-03-11T21:38:38.434Z,6.03
2019-03-11T21:41:07.851Z,6.83
2019-03-11T21:43:37.185Z,11.95
2019-03-11T21:46:06.503Z,5.67
2019-03-11T21:48:35.824Z,5.65
2019-03-11T21:51:05.183Z,6.03
2019-03-11T21:53:34.860Z,6.95
2019-03-11T21:56:04.175Z,7.55
2019-03-11T21:58:33.516Z,9.88
2019-03-11T22:01:02.779Z,4.92
2019-03-11T22:03:32.064Z,7.08
2019-03-11T22:06:01.302Z,9.20
2019-03-11T22:08:30.686Z,6.15
2019-03-11T22:10:59.968Z,8.30
2019-03-11T22:13:29.376Z,6.08
2019-03-11T22:15:58.657Z,6.78
2019-03-11T22:18:27.972Z,7.22
2019-03-11T22:20:57.362Z,11.10
2019-03-11T22:23:26.595Z,9.43
2019-03-11T22:25:55.824Z,9.40
2019-03-11T22:28:25.153Z,7.35
2019-03-11T22:30:54.394Z,7.85
2019-03-11T22:33:23.675Z,7.22
2019-03-11T22:35:52.887Z,13.18
2019-03-11T22:38:22.163Z,8.03
2019-03-11T22:40:51.393Z,7.00
2019-03-11T22:43:20.611Z,10.82
2019-03-11T22:45:49.801Z,9.08
2019-03-11T22:48:20.916Z,11.83
2019-03-11T22:50:49.981Z,11.00
2019-03-11T22:53:19.217Z,15.85
2019-03-11T22:55:48.462Z,11.57
2019-03-11T22:58:17.710Z,10.15
2019-03-11T23:01:02.085Z,11.38
2019-03-11T23:03:31.334Z,12.00
2019-03-11T23:06:00.648Z,10.88
2019-03-11T23:08:29.973Z,11.75
2019-03-11T23:10:59.178Z,8.93
2019-03-11T23:13:28.381Z,9.28
2019-03-11T23:15:57.570Z,10.45
2019-03-11T23:18:26.755Z,11.03
2019-03-11T23:20:56.045Z,11.05
2019-03-11T23:23:25.265Z,10.38
2019-03-11T23:25:54.536Z,12.05
2019-03-11T23:28:23.722Z,15.18
2019-03-11T23:30:52.972Z,9.80
2019-03-11T23:33:22.164Z,8.58
2019-03-11T23:35:51.370Z,12.13
2019-03-11T23:38:20.595Z,13.78
2019-03-11T23:40:49.813Z,15.68
2019-03-11T23:43:19.045Z,8.93
2019-03-11T23:45:48.226Z,7.60
2019-03-11T23:48:17.451Z,10.15
2019-03-11T23:50:46.627Z,19.62
2019-03-11T23:53:15.965Z,15.43
2019-03-11T23:55:45.189Z,12.30
2019-03-11T23:58:14.420Z,12.43
